Akron, Michigan
Current Conditions -  °F | °C
As of 12:05 AM on Thursday 27 Nov 2014 (Local Time) from KCFS Reporting Station
Overcast Overcast  
Wind Chill: 25°   Ceiling: 1200
Heat Index: 30°   Visibility: 10mi
Dew Point: 25°   Wind: 5mph
Humidity: 80%   Direction: 330°NNW
Pressure: 30.1"   Gusts: NA
Location:  43.57°N, 83.51°W
Report Text: KCFS 270505Z AUTO 33004KT 10SM OVC012 M01/M04 A3010 RMK AO2
Loading
Personal Weather Stations






























Interactive Weather Map New forecast layout! Learn more

10-Day Weather Forecast

Advertisements
Track Severe Weather on mobile